Time;durP1;ratioP1;P1;durP2;ratioP2;P2;SDS_P1;SDS_P2;PMS_P1;PMS_P2;Temp;Humidity;BMP_temperature;BMP_pressure;BME280_temperature;BME280_humidity;BME280_pressure;Samples;Min_cycle;Max_cycle;Signal;HPM_P1;HPM_P2
2021/05/06 00:14:31;;;;;;;17.92;2.97;;;;;;;3.14;85.69;100471.66;5048856;28;20110;-76
2021/05/06 00:34:09;;;;;;;15.68;2.67;;;;;;;2.88;86.63;100468.25;5049930;28;20048;-78
2021/05/06 00:36:36;;;;;;;24.77;3.00;;;;;;;2.83;87.00;100460.78;5041674;28;20263;-78
2021/05/06 00:39:16;;;;;;;21.15;2.83;;;;;;;2.89;86.46;100464.72;5035741;28;20033;-77
2021/05/06 00:45:19;;;;;;;14.88;2.50;;;;;;;2.86;86.79;100468.38;5032469;28;20406;-77
2021/05/06 00:54:04;;;;;;;26.73;2.65;;;;;;;2.86;86.85;100465.78;5028589;28;20045;-78
2021/05/06 00:55:34;;;;;;;19.88;2.50;;;;;;;2.73;86.71;100454.56;5051895;28;20481;-77
2021/05/06 01:01:06;;;;;;;16.60;2.08;;;;;;;2.65;87.30;100455.06;5039948;28;20047;-81
2021/05/06 01:06:14;;;;;;;20.60;3.00;;;;;;;2.54;88.42;100457.56;5048250;28;20045;-77
2021/05/06 01:09:06;;;;;;;21.58;2.78;;;;;;;2.62;87.54;100462.22;5030846;28;20032;-77
2021/05/06 01:11:36;;;;;;;15.00;2.53;;;;;;;2.52;87.76;100462.00;5046539;28;20051;-77
2021/05/06 01:14:03;;;;;;;18.02;2.60;;;;;;;2.48;88.34;100463.97;5022797;28;20075;-77
2021/05/06 01:16:29;;;;;;;22.40;3.13;;;;;;;2.60;87.58;100461.50;5016701;28;20049;-78
2021/05/06 01:18:55;;;;;;;23.85;2.70;;;;;;;2.59;87.74;100467.63;5028115;28;20042;-78
2021/05/06 01:21:20;;;;;;;15.93;2.40;;;;;;;2.71;86.09;100462.47;5051032;28;20097;-77
2021/05/06 01:23:48;;;;;;;16.05;3.13;;;;;;;2.68;86.75;100469.59;5027467;28;20538;-77
2021/05/06 01:26:19;;;;;;;15.70;2.95;;;;;;;2.66;86.63;100458.53;5050338;28;20051;-77
2021/05/06 01:28:53;;;;;;;16.42;2.65;;;;;;;2.71;86.44;100464.19;5013255;28;20120;-77
2021/05/06 01:31:22;;;;;;;13.32;2.33;;;;;;;2.65;86.25;100455.06;5035926;28;20040;-78
2021/05/06 01:36:17;;;;;;;20.83;3.08;;;;;;;2.52;87.60;100467.19;5038959;28;20040;-77
2021/05/06 01:44:10;;;;;;;17.60;2.60;;;;;;;2.64;86.60;100453.44;5070252;28;20044;-78
2021/05/06 01:49:49;;;;;;;22.40;2.92;;;;;;;2.58;86.71;100455.59;5036788;28;21541;-77
2021/05/06 02:00:34;;;;;;;17.40;2.40;;;;;;;2.40;87.90;100455.06;5027366;28;20167;-77
2021/05/06 02:03:13;;;;;;;17.88;2.42;;;;;;;2.51;87.49;100462.94;5020837;28;20132;-77
2021/05/06 02:05:39;;;;;;;14.63;3.00;;;;;;;2.51;86.91;100457.78;5023342;28;20127;-77
2021/05/06 02:08:05;;;;;;;22.30;2.40;;;;;;;2.53;86.43;100467.09;5021304;28;20521;-77
2021/05/06 02:10:37;;;;;;;13.93;2.08;;;;;;;2.62;86.36;100462.22;5019962;28;20048;-80
2021/05/06 02:13:04;;;;;;;18.08;2.33;;;;;;;2.53;86.49;100455.91;5051349;28;20040;-80
2021/05/06 02:15:42;;;;;;;16.50;2.75;;;;;;;2.45;86.88;100459.00;5029935;28;20132;-78
2021/05/06 02:18:08;;;;;;;13.02;2.70;;;;;;;2.42;86.78;100460.97;5018919;28;20045;-79
2021/05/06 02:20:35;;;;;;;18.25;2.65;;;;;;;2.43;86.43;100468.63;5031822;28;20049;-79
2021/05/06 02:23:04;;;;;;;15.77;2.95;;;;;;;2.45;86.68;100464.19;5032495;28;20051;-79
2021/05/06 02:25:30;;;;;;;14.43;2.38;;;;;;;2.42;86.75;100464.38;5019684;28;20081;-78
2021/05/06 02:27:56;;;;;;;16.08;2.72;;;;;;;2.38;87.25;100456.94;5034399;28;20061;-76
2021/05/06 02:30:21;;;;;;;15.38;2.72;;;;;;;2.29;87.85;100466.09;5037065;28;20036;-79
2021/05/06 02:32:47;;;;;;;19.73;2.50;;;;;;;2.22;87.67;100464.84;5043973;28;20049;-77
2021/05/06 02:35:14;;;;;;;19.88;2.70;;;;;;;2.19;88.28;100463.28;5038302;28;20045;-81
2021/05/06 02:37:39;;;;;;;12.25;2.40;;;;;;;2.05;89.04;100469.34;5042780;28;20067;-79
2021/05/06 02:40:07;;;;;;;19.67;2.97;;;;;;;1.98;89.53;100473.28;5032880;28;20083;-78
2021/05/06 02:42:33;;;;;;;11.93;2.25;;;;;;;2.05;89.02;100469.34;5025078;28;20410;-79
2021/05/06 02:44:58;;;;;;;19.45;3.15;;;;;;;2.06;88.80;100465.84;5037224;28;20057;-79
2021/05/06 02:47:24;;;;;;;13.73;2.72;;;;;;;2.13;88.62;100466.28;5037436;28;20043;-80
2021/05/06 02:49:51;;;;;;;17.77;2.10;;;;;;;2.09;88.77;100465.66;5023311;28;20044;-79
2021/05/06 02:52:35;;;;;;;17.77;2.60;;;;;;;2.14;88.05;100462.75;5021091;28;20064;-79
2021/05/06 02:55:09;;;;;;;13.48;2.85;;;;;;;2.20;87.71;100470.13;5027217;28;20041;-80
2021/05/06 02:57:39;;;;;;;23.25;3.00;;;;;;;2.25;87.50;100470.66;5052593;28;20048;-78
2021/05/06 03:02:53;;;;;;;13.52;2.08;;;;;;;2.18;87.87;100469.38;5048579;28;20586;-77
2021/05/06 03:05:21;;;;;;;16.33;2.92;;;;;;;2.18;87.69;100466.78;5035026;28;20043;-78
2021/05/06 03:07:58;;;;;;;15.43;2.97;;;;;;;2.15;88.16;100477.38;5014753;28;20084;-81
2021/05/06 03:11:14;;;;;;;18.23;2.63;;;;;;;2.04;88.79;100472.88;5035790;28;20040;-78
2021/05/06 03:14:01;;;;;;;21.50;2.85;;;;;;;2.09;87.92;100468.25;5052003;28;20636;-78
2021/05/06 03:24:23;;;;;;;20.27;2.80;;;;;;;2.10;87.42;100467.28;5032929;28;20040;-77
2021/05/06 03:26:49;;;;;;;18.52;2.95;;;;;;;1.95;87.87;100447.59;5000753;28;20061;-78
2021/05/06 03:29:22;;;;;;;13.50;2.67;;;;;;;2.03;88.04;100462.63;5035534;28;20068;-75
2021/05/06 03:48:31;;;;;;;14.27;2.40;;;;;;;1.77;89.82;100482.38;5017028;28;20043;-78
2021/05/06 04:13:03;;;;;;;13.27;2.60;;;;;;;1.82;89.89;100475.97;5061332;28;20495;-79
2021/05/06 04:25:49;;;;;;;8.77;2.47;;;;;;;2.20;87.98;100485.63;5044741;28;20037;-79
2021/05/06 04:31:19;;;;;;;13.07;2.58;;;;;;;2.18;88.86;100471.97;5049855;28;20119;-78
2021/05/06 04:36:49;;;;;;;17.70;2.55;;;;;;;2.35;87.70;100483.81;5032389;28;20105;-78
2021/05/06 04:39:17;;;;;;;15.40;2.78;;;;;;;2.38;87.86;100488.00;5030709;28;20037;-76
2021/05/06 04:41:57;;;;;;;18.25;2.80;;;;;;;2.41;87.59;100480.00;5023200;28;20098;-78
2021/05/06 04:45:14;;;;;;;22.15;2.53;;;;;;;2.48;87.26;100481.25;5034214;28;20048;-77
2021/05/06 05:03:53;;;;;;;14.27;2.10;;;;;;;2.97;84.72;100487.53;5035792;28;20063;-79
2021/05/06 05:06:21;;;;;;;11.77;1.95;;;;;;;3.08;83.98;100490.22;5018792;28;20048;-78
2021/05/06 05:08:56;;;;;;;14.43;2.47;;;;;;;3.17;84.53;100483.59;5032277;28;20040;-79
2021/05/06 05:24:29;;;;;;;15.98;2.33;;;;;;;3.30;84.12;100495.59;5039009;28;20055;-78
2021/05/06 05:26:54;;;;;;;12.45;2.42;;;;;;;3.52;83.06;100499.28;5021715;28;20036;-78
2021/05/06 05:29:20;;;;;;;12.02;2.75;;;;;;;3.64;81.59;100501.03;5022418;28;20047;-79
2021/05/06 05:31:45;;;;;;;12.82;3.03;;;;;;;3.83;81.85;100490.19;5021853;28;20045;-80
2021/05/06 05:34:37;;;;;;;16.33;2.47;;;;;;;3.90;81.48;100490.59;5073665;28;20040;-80
2021/05/06 05:37:03;;;;;;;12.35;2.35;;;;;;;3.95;81.20;100493.66;5015845;28;20048;-80
2021/05/06 05:39:36;;;;;;;15.55;2.42;;;;;;;3.98;82.73;100506.44;5014159;28;20033;-78
2021/05/06 05:48:16;;;;;;;9.30;1.80;;;;;;;4.37;78.67;100485.47;5050762;28;20082;-77
2021/05/06 05:55:53;;;;;;;13.48;2.30;;;;;;;4.66;79.17;100499.72;5055541;28;20410;-78
2021/05/06 05:58:19;;;;;;;8.52;2.67;;;;;;;4.72;79.58;100498.44;5039058;28;20046;-80
2021/05/06 06:00:44;;;;;;;14.85;2.47;;;;;;;4.84;79.66;100496.69;5024087;28;20510;-81
2021/05/06 06:03:10;;;;;;;8.55;1.88;;;;;;;4.91;77.54;100508.28;5030769;28;20272;-81
2021/05/06 06:05:35;;;;;;;16.15;2.53;;;;;;;4.94;77.68;100505.47;5055017;28;20127;-78
2021/05/06 06:08:01;;;;;;;15.05;2.40;;;;;;;5.03;77.69;100506.56;5022219;28;20048;-79
2021/05/06 06:10:27;;;;;;;16.90;2.45;;;;;;;5.09;77.56;100508.69;5054449;28;20550;-79
2021/05/06 06:12:52;;;;;;;16.90;2.78;;;;;;;5.12;77.20;100510.22;5029357;28;20048;-77
2021/05/06 06:18:15;;;;;;;10.90;2.00;;;;;;;5.29;76.97;100517.53;5040261;28;20414;-80
2021/05/06 06:20:44;;;;;;;11.73;2.25;;;;;;;5.34;77.00;100518.03;5023293;28;20057;-79
2021/05/06 06:23:09;;;;;;;15.88;2.47;;;;;;;5.50;77.80;100522.03;5045816;28;20036;-82
2021/05/06 06:25:35;;;;;;;17.00;2.70;;;;;;;5.59;75.61;100519.53;5036991;28;20044;-79
2021/05/06 06:28:00;;;;;;;9.88;2.20;;;;;;;5.76;76.33;100525.19;5021165;28;20049;-80
2021/05/06 06:30:27;;;;;;;17.92;3.08;;;;;;;5.84;75.20;100526.28;5037516;28;20040;-83
2021/05/06 06:32:53;;;;;;;7.90;1.83;;;;;;;5.83;73.89;100518.56;5021777;28;20051;-79
2021/05/06 06:35:19;;;;;;;13.60;2.50;;;;;;;5.94;75.61;100509.91;5022913;28;20040;-79
2021/05/06 06:37:44;;;;;;;9.65;2.47;;;;;;;6.02;74.98;100507.56;5021944;28;20036;-79
2021/05/06 06:40:10;;;;;;;11.73;2.65;;;;;;;6.08;74.71;100520.06;5036911;28;20078;-80
2021/05/06 06:42:36;;;;;;;12.30;3.03;;;;;;;6.16;75.51;100512.50;5027023;28;20048;-81
2021/05/06 06:45:02;;;;;;;12.73;2.58;;;;;;;6.30;76.25;100507.94;5037334;28;20064;-81
2021/05/06 06:47:28;;;;;;;14.15;2.53;;;;;;;6.50;73.61;100517.56;5027330;28;20045;-79
2021/05/06 06:49:53;;;;;;;14.68;2.75;;;;;;;6.54;76.25;100511.16;5021395;28;20495;-79
2021/05/06 06:52:19;;;;;;;17.60;2.97;;;;;;;6.62;73.95;100519.16;5043539;28;20499;-79
2021/05/06 06:54:46;;;;;;;19.52;2.95;;;;;;;6.63;72.82;100517.41;5038138;28;20051;-79
2021/05/06 06:57:12;;;;;;;14.57;2.80;;;;;;;6.78;71.84;100523.09;5052819;28;20040;-79
2021/05/06 06:59:38;;;;;;;12.15;2.45;;;;;;;6.86;71.19;100531.13;5038043;28;20095;-78
2021/05/06 07:02:03;;;;;;;13.70;2.50;;;;;;;6.72;72.43;100527.03;5017588;28;21222;-79
2021/05/06 07:04:30;;;;;;;14.57;2.33;;;;;;;6.99;73.79;100529.16;5017496;28;20871;-81
2021/05/06 07:06:56;;;;;;;14.18;2.22;;;;;;;7.00;71.56;100528.19;5018004;28;20057;-79
2021/05/06 07:09:23;;;;;;;12.20;2.70;;;;;;;6.99;71.65;100523.94;5028021;28;20039;-81
2021/05/06 07:11:48;;;;;;;11.75;2.72;;;;;;;7.21;71.41;100527.31;5020824;28;20094;-81
2021/05/06 07:14:14;;;;;;;13.55;2.42;;;;;;;7.27;70.55;100533.81;5043734;28;20037;-79
2021/05/06 07:16:39;;;;;;;11.27;2.35;;;;;;;7.32;70.62;100535.06;5031352;28;20063;-79
2021/05/06 07:19:05;;;;;;;11.82;2.45;;;;;;;7.35;70.16;100523.56;5037858;28;20077;-79
2021/05/06 07:21:31;;;;;;;17.33;2.45;;;;;;;7.28;69.87;100531.06;5049416;28;20478;-80
2021/05/06 07:23:56;;;;;;;15.18;2.53;;;;;;;7.31;69.27;100529.97;5032915;28;20040;-79
2021/05/06 07:26:24;;;;;;;10.77;2.95;;;;;;;7.24;70.20;100536.69;5038019;28;20044;-79
2021/05/06 07:28:51;;;;;;;11.27;2.05;;;;;;;7.28;69.89;100527.66;5033690;28;20122;-80
2021/05/06 07:31:16;;;;;;;11.00;2.53;;;;;;;7.15;69.03;100533.88;5001207;28;20083;-81
2021/05/06 07:33:45;;;;;;;12.02;1.98;;;;;;;7.32;73.01;100539.47;5014530;28;20040;-80
2021/05/06 07:36:11;;;;;;;16.60;2.22;;;;;;;7.74;70.94;100537.59;5064270;28;20570;-79
2021/05/06 07:38:37;;;;;;;8.98;1.98;;;;;;;7.78;67.95;100540.75;5052828;28;20086;-81
2021/05/06 07:41:04;;;;;;;9.18;2.17;;;;;;;7.51;67.79;100530.91;5037409;28;20041;-81
2021/05/06 07:43:31;;;;;;;10.38;2.20;;;;;;;7.47;70.58;100537.34;5015810;28;20448;-77
2021/05/06 07:46:00;;;;;;;12.55;1.85;;;;;;;7.46;67.12;100533.06;5015530;28;20041;-81
2021/05/06 07:48:26;;;;;;;15.30;2.13;;;;;;;7.56;66.61;100541.78;5026741;28;20056;-81
2021/05/06 07:50:53;;;;;;;13.60;2.25;;;;;;;7.77;67.90;100532.06;5028282;28;20032;-80
2021/05/06 07:53:26;;;;;;;8.43;1.88;;;;;;;8.24;67.32;100533.28;5011596;28;20041;-80
2021/05/06 07:55:55;;;;;;;14.02;2.00;;;;;;;8.55;64.26;100537.44;5021469;28;20057;-79
2021/05/06 07:58:21;;;;;;;14.70;2.25;;;;;;;8.61;63.58;100533.44;5029851;28;20068;-79
2021/05/06 08:00:47;;;;;;;10.50;1.73;;;;;;;8.32;62.56;100538.63;5020483;28;20079;-79
2021/05/06 08:03:13;;;;;;;12.13;2.10;;;;;;;7.89;63.13;100522.38;5020916;28;20047;-79
2021/05/06 08:05:41;;;;;;;9.10;2.00;;;;;;;7.99;65.87;100528.41;5015531;28;20483;-79
2021/05/06 08:08:08;;;;;;;11.25;2.10;;;;;;;8.11;63.75;100523.88;5009368;28;20402;-80
2021/05/06 08:10:33;;;;;;;12.35;1.80;;;;;;;8.29;64.05;100531.91;5009182;28;20047;-80
2021/05/06 08:13:02;;;;;;;11.82;1.98;;;;;;;8.51;65.54;100532.59;5028882;28;20041;-81
2021/05/06 08:15:28;;;;;;;12.15;2.05;;;;;;;8.99;63.98;100536.16;5034092;28;20041;-80
2021/05/06 08:17:54;;;;;;;10.15;2.05;;;;;;;8.75;62.53;100529.56;5016493;28;20426;-80
2021/05/06 08:20:21;;;;;;;16.95;2.38;;;;;;;8.08;63.90;100544.22;5035711;28;20040;-81
2021/05/06 08:22:46;;;;;;;9.25;2.20;;;;;;;7.99;64.53;100545.88;5036348;28;20052;-81
2021/05/06 08:25:14;;;;;;;8.25;1.67;;;;;;;8.56;64.12;100543.47;5078709;28;20051;-80
2021/05/06 08:27:40;;;;;;;10.60;1.95;;;;;;;8.98;59.91;100542.34;5036247;28;20048;-80
2021/05/06 08:30:08;;;;;;;12.35;1.88;;;;;;;9.02;63.02;100539.28;5035240;28;20047;-80
2021/05/06 08:32:34;;;;;;;9.23;1.92;;;;;;;8.98;61.96;100545.75;5036930;28;20127;-81
2021/05/06 08:35:00;;;;;;;14.48;1.95;;;;;;;8.66;61.86;100548.69;5035887;28;20120;-81
2021/05/06 08:37:26;;;;;;;12.18;1.70;;;;;;;8.43;64.90;100561.22;5037346;28;20089;-79
2021/05/06 08:39:53;;;;;;;14.20;1.90;;;;;;;7.98;66.55;100558.09;5045155;28;20052;-77
2021/05/06 08:42:19;;;;;;;10.55;1.60;;;;;;;7.62;68.80;100569.94;5018526;28;20533;-79
2021/05/06 08:44:45;;;;;;;8.25;1.52;;;;;;;7.28;69.76;100574.59;5029794;28;20603;-79
2021/05/06 08:47:17;;;;;;;12.98;1.92;;;;;;;7.06;69.80;100568.56;5052807;28;20052;-79
2021/05/06 08:49:44;;;;;;;9.52;2.38;;;;;;;7.44;69.51;100582.81;5018110;28;20453;-79
2021/05/06 08:52:11;;;;;;;14.88;2.00;;;;;;;7.95;68.74;100571.44;5043418;28;20120;-79
2021/05/06 08:54:37;;;;;;;8.38;1.67;;;;;;;8.35;65.22;100562.69;5035588;28;20132;-81
2021/05/06 08:57:03;;;;;;;9.63;1.80;;;;;;;8.84;65.94;100567.97;5019811;28;20032;-80
2021/05/06 08:59:30;;;;;;;17.67;1.98;;;;;;;9.61;62.85;100565.28;5057128;28;20061;-81
2021/05/06 09:01:57;;;;;;;13.35;2.20;;;;;;;9.54;62.76;100575.50;5023588;28;20056;-80
2021/05/06 09:04:23;;;;;;;11.07;1.63;;;;;;;9.28;63.46;100576.13;5020190;28;20040;-80
2021/05/06 09:06:58;;;;;;;10.40;1.50;;;;;;;9.05;63.42;100564.34;5036206;28;20044;-79
2021/05/06 09:09:25;;;;;;;7.43;1.70;;;;;;;9.10;64.17;100565.59;5020841;28;20041;-82
2021/05/06 09:11:53;;;;;;;12.48;2.10;;;;;;;9.00;61.43;100570.00;5014029;28;20506;-82
2021/05/06 09:14:37;;;;;;;9.77;1.40;;;;;;;8.60;60.93;100580.63;5010756;28;20041;-81
2021/05/06 09:17:22;;;;;;;11.63;1.77;;;;;;;8.57;63.01;100581.75;5041864;28;20517;-80
2021/05/06 09:19:54;;;;;;;8.48;1.65;;;;;;;9.12;60.15;100583.75;5051970;28;20048;-80
2021/05/06 09:22:50;;;;;;;9.25;1.58;;;;;;;9.77;59.18;100581.19;5042813;28;20040;-82
2021/05/06 09:25:34;;;;;;;12.85;1.92;;;;;;;10.39;57.88;100577.97;5024058;28;20047;-82
2021/05/06 09:28:08;;;;;;;9.85;1.60;;;;;;;10.77;55.53;100579.44;5028144;28;20629;-80
2021/05/06 09:30:38;;;;;;;7.68;1.45;;;;;;;11.14;54.71;100580.22;5050647;28;20650;-81
2021/05/06 09:33:09;;;;;;;5.93;1.33;;;;;;;11.43;52.91;100574.63;5020351;28;20052;-80
2021/05/06 09:35:43;;;;;;;7.45;1.30;;;;;;;10.87;51.08;100580.19;5058405;28;20065;-79
2021/05/06 09:38:24;;;;;;;5.78;1.30;;;;;;;10.45;52.72;100585.22;5039769;28;20495;-81
2021/05/06 09:40:50;;;;;;;7.97;1.60;;;;;;;9.87;53.08;100578.50;5039499;28;20495;-81
2021/05/06 09:43:42;;;;;;;9.15;1.55;;;;;;;9.76;53.31;100579.56;5055123;28;20486;-81
2021/05/06 09:46:25;;;;;;;9.95;1.75;;;;;;;9.96;52.52;100575.03;5016255;28;20055;-79
2021/05/06 09:49:02;;;;;;;9.57;1.67;;;;;;;10.31;56.65;100584.78;5040885;28;20048;-80
2021/05/06 09:51:40;;;;;;;9.75;1.70;;;;;;;10.14;53.23;100580.31;5024833;28;20032;-81
2021/05/06 09:54:10;;;;;;;10.57;1.60;;;;;;;9.86;56.87;100584.75;5037798;28;20379;-83
2021/05/06 09:56:36;;;;;;;11.35;1.70;;;;;;;9.81;57.98;100582.53;5052851;28;20055;-82
2021/05/06 09:59:02;;;;;;;10.18;1.70;;;;;;;10.40;54.83;100584.88;5036934;28;20044;-81
2021/05/06 10:01:39;;;;;;;9.18;1.90;;;;;;;10.69;55.38;100572.31;5019787;28;20529;-80
2021/05/06 10:04:26;;;;;;;7.13;1.40;;;;;;;10.96;51.27;100573.19;5030799;28;20036;-81
2021/05/06 10:07:20;;;;;;;6.15;1.52;;;;;;;11.19;52.15;100572.69;5056851;28;20045;-81
2021/05/06 10:09:55;;;;;;;10.57;1.45;;;;;;;11.54;51.84;100571.72;5024894;28;20041;-81
2021/05/06 10:12:23;;;;;;;8.80;1.35;;;;;;;11.61;53.34;100566.69;5022988;28;20040;-80
2021/05/06 10:14:50;;;;;;;6.18;1.30;;;;;;;11.86;51.08;100575.47;5023651;28;20048;-81
2021/05/06 10:17:17;;;;;;;6.22;1.20;;;;;;;11.45;50.39;100567.41;5056242;28;20040;-81
2021/05/06 10:19:43;;;;;;;7.50;1.58;;;;;;;11.07;51.70;100575.56;5030424;28;20051;-82
2021/05/06 10:22:11;;;;;;;8.77;1.58;;;;;;;10.48;52.02;100577.06;5040157;28;20119;-82
2021/05/06 10:24:44;;;;;;;10.65;1.50;;;;;;;9.73;57.63;100592.94;5030353;28;20072;-80
2021/05/06 10:27:13;;;;;;;8.60;1.73;;;;;;;9.17;60.43;100592.00;5020491;28;20044;-80
2021/05/06 10:29:40;;;;;;;13.68;1.90;;;;;;;8.61;67.13;100629.34;5043021;28;20044;-81
2021/05/06 10:32:09;;;;;;;8.82;1.38;;;;;;;8.26;66.64;100628.03;5034814;28;20051;-81
2021/05/06 10:34:35;;;;;;;5.95;1.30;;;;;;;8.11;66.26;100632.78;5017707;28;20655;-77
2021/05/06 10:37:01;;;;;;;6.18;1.50;;;;;;;8.71;65.93;100640.66;5038190;28;20055;-80
2021/05/06 10:39:38;;;;;;;4.40;1.27;;;;;;;9.16;63.67;100633.03;5017840;28;20499;-78
2021/05/06 10:42:26;;;;;;;5.30;1.40;;;;;;;9.10;62.28;100638.84;5061656;28;20528;-80
2021/05/06 10:44:53;;;;;;;3.88;0.90;;;;;;;8.90;58.38;100643.25;5070438;28;20410;-80
2021/05/06 10:47:46;;;;;;;3.05;0.80;;;;;;;8.65;61.42;100646.44;5022970;28;20044;-79
2021/05/06 10:50:16;;;;;;;5.70;0.80;;;;;;;8.96;63.18;100644.50;5055747;28;20044;-78
2021/05/06 10:52:44;;;;;;;2.30;0.60;;;;;;;9.09;63.42;100637.19;5022405;28;20040;-79
2021/05/06 10:55:11;;;;;;;3.22;0.82;;;;;;;9.53;59.08;100632.28;5018825;28;20106;-78
2021/05/06 10:57:39;;;;;;;1.30;0.70;;;;;;;9.86;57.96;100624.84;5061076;28;20041;-77
2021/05/06 11:00:26;;;;;;;3.60;0.60;;;;;;;10.11;54.22;100623.38;5065104;28;20106;-78
2021/05/06 11:02:54;;;;;;;4.60;1.08;;;;;;;10.60;54.03;100619.63;5029496;28;20507;-78
2021/05/06 11:05:25;;;;;;;5.63;1.00;;;;;;;10.81;51.05;100616.69;5037423;28;20422;-79
2021/05/06 11:08:03;;;;;;;6.50;1.30;;;;;;;11.11;50.76;100615.44;5019283;28;20511;-77
2021/05/06 11:10:29;;;;;;;6.75;1.20;;;;;;;11.41;49.48;100608.91;5025778;28;20427;-78
2021/05/06 11:12:57;;;;;;;4.80;1.10;;;;;;;11.26;47.41;100611.31;5034570;28;20040;-80
2021/05/06 11:15:23;;;;;;;3.70;0.88;;;;;;;11.54;46.88;100605.88;5035263;28;20045;-79
2021/05/06 11:17:50;;;;;;;6.22;1.30;;;;;;;11.94;50.45;100604.47;5060733;28;20052;-81
2021/05/06 11:20:16;;;;;;;4.72;1.30;;;;;;;12.31;46.84;100607.69;5020758;28;20123;-79
2021/05/06 11:22:41;;;;;;;7.72;1.23;;;;;;;12.60;47.14;100609.88;5037899;28;20053;-78
2021/05/06 11:25:47;;;;;;;9.77;1.42;;;;;;;12.95;46.84;100611.38;5039104;28;20052;-79
2021/05/06 11:28:11;;;;;;;6.57;1.45;;;;;;;12.24;49.06;100623.28;5042983;28;20257;-79
2021/05/06 11:30:44;;;;;;;19.27;1.85;;;;;;;10.75;52.92;100635.66;5041864;28;20137;-78
2021/05/06 11:33:16;;;;;;;8.13;1.42;;;;;;;9.47;64.23;100663.44;5036468;28;20065;-78
2021/05/06 11:36:01;;;;;;;2.55;0.90;;;;;;;8.52;69.42;100691.13;5027405;28;20048;-79
2021/05/06 11:38:35;;;;;;;5.90;0.90;;;;;;;7.74;74.86;100675.13;5025312;28;20044;-80
2021/05/06 11:41:14;;;;;;;2.03;0.68;;;;;;;7.43;75.17;100656.00;5021189;28;20052;-79
2021/05/06 11:43:48;;;;;;;1.60;0.80;;;;;;;7.20;75.81;100661.34;5057232;28;20461;-80
2021/05/06 11:46:19;;;;;;;1.90;0.65;;;;;;;6.89;77.32;100649.97;5013548;28;20083;-80
2021/05/06 11:48:48;;;;;;;3.35;1.08;;;;;;;6.87;80.47;100649.28;5040898;28;20068;-78
2021/05/06 11:51:34;;;;;;;4.32;0.93;;;;;;;6.96;79.24;100643.31;5027529;28;20037;-81
2021/05/06 11:54:08;;;;;;;4.40;0.90;;;;;;;6.91;80.45;100655.88;5034487;28;20507;-81
2021/05/06 11:56:50;;;;;;;2.38;0.90;;;;;;;6.83;81.53;100644.28;5031311;23;20045;-78
2021/05/06 11:59:18;;;;;;;2.47;0.90;;;;;;;7.11;82.26;100642.03;5020012;28;20578;-77
2021/05/06 12:01:44;;;;;;;5.07;1.50;;;;;;;7.55;82.12;100637.53;5013187;28;20730;-78
2021/05/06 12:04:24;;;;;;;3.55;1.20;;;;;;;8.43;80.35;100622.16;5008698;28;20048;-77
2021/05/06 12:06:50;;;;;;;7.93;1.73;;;;;;;9.10;75.51;100610.06;5011311;28;20057;-78
2021/05/06 12:09:23;;;;;;;8.20;1.55;;;;;;;9.43;69.43;100602.69;5001509;28;20069;-76
2021/05/06 12:11:50;;;;;;;4.25;1.35;;;;;;;9.70;67.36;100598.44;5004255;28;20060;-78
2021/05/06 12:14:16;;;;;;;4.28;1.25;;;;;;;10.24;67.79;100602.03;5005094;28;20041;-78
2021/05/06 12:16:41;;;;;;;5.28;1.15;;;;;;;10.29;59.71;100589.31;5003839;28;20111;-77
2021/05/06 12:19:11;;;;;;;9.68;1.63;;;;;;;10.54;63.05;100588.75;4996492;28;20057;-78
2021/05/06 12:21:45;;;;;;;9.85;1.45;;;;;;;11.02;62.35;100598.00;5009702;28;20058;-77
2021/05/06 12:24:23;;;;;;;8.93;1.33;;;;;;;10.69;58.85;100598.56;5020139;28;20053;-78
2021/05/06 12:26:49;;;;;;;7.05;1.40;;;;;;;10.10;64.60;100608.59;4991719;28;20877;-77
2021/05/06 12:29:20;;;;;;;4.55;1.10;;;;;;;9.70;69.71;100615.00;4987213;28;20049;-76
2021/05/06 12:31:47;;;;;;;7.57;1.60;;;;;;;8.91;71.50;100651.91;5002800;28;20064;-76
2021/05/06 12:34:21;;;;;;;6.82;1.40;;;;;;;7.98;73.07;100640.88;5005230;28;20045;-76
2021/05/06 12:36:56;;;;;;;7.57;1.25;;;;;;;7.40;76.78;100639.66;4992196;28;20117;-77
2021/05/06 12:39:22;;;;;;;7.38;1.35;;;;;;;7.09;80.56;100645.75;5010387;28;20038;-79
2021/05/06 12:41:54;;;;;;;2.83;1.08;;;;;;;7.17;80.22;100635.50;4990354;28;20036;-78
2021/05/06 12:44:37;;;;;;;6.30;1.27;;;;;;;8.13;79.07;100626.47;5004968;28;20087;-77
2021/05/06 12:47:29;;;;;;;4.97;1.23;;;;;;;9.00;72.55;100626.72;4981306;28;20113;-80
2021/05/06 12:50:13;;;;;;;7.60;1.10;;;;;;;9.85;70.96;100625.84;4984115;28;20591;-77
2021/05/06 12:52:44;;;;;;;7.43;1.60;;;;;;;10.16;62.66;100620.28;4995979;28;20041;-77
2021/05/06 12:55:16;;;;;;;5.13;1.10;;;;;;;10.90;69.60;100616.59;5012149;28;20046;-78
2021/05/06 12:57:43;;;;;;;8.38;1.20;;;;;;;11.45;61.11;100606.81;4995038;28;20099;-78
2021/05/06 13:00:21;;;;;;;3.28;0.80;;;;;;;11.83;56.37;100600.28;5027996;28;20053;-81
2021/05/06 13:02:46;;;;;;;4.40;1.00;;;;;;;11.95;55.73;100582.44;5010879;28;20046;-79
2021/05/06 13:05:28;;;;;;;7.75;0.90;;;;;;;11.81;52.39;100583.00;5026798;28;20053;-79
2021/05/06 13:07:54;;;;;;;8.10;1.10;;;;;;;11.77;59.86;100586.94;5018794;28;20052;-80
2021/05/06 13:10:48;;;;;;;2.63;1.05;;;;;;;12.53;52.76;100587.84;5009670;28;20583;-79
2021/05/06 13:13:37;;;;;;;4.28;0.80;;;;;;;12.82;52.73;100577.63;5007863;28;20045;-78
2021/05/06 13:16:03;;;;;;;2.90;0.75;;;;;;;12.85;46.93;100574.69;5023564;28;20049;-77
2021/05/06 13:18:29;;;;;;;2.35;0.60;;;;;;;13.32;45.49;100578.44;4997226;28;20038;-80
2021/05/06 13:20:54;;;;;;;1.73;0.60;;;;;;;13.70;45.90;100575.19;5003235;28;20056;-77
2021/05/06 13:23:31;;;;;;;2.50;0.55;;;;;;;14.16;41.93;100576.09;4999648;28;20046;-78
2021/05/06 13:25:58;;;;;;;1.35;0.50;;;;;;;14.27;40.33;100564.34;5012978;28;20042;-78
2021/05/06 13:28:33;;;;;;;2.28;0.70;;;;;;;14.45;38.38;100574.63;5015582;28;20061;-79
2021/05/06 13:31:05;;;;;;;2.88;0.73;;;;;;;14.98;38.08;100566.78;5020142;28;20052;-77
2021/05/06 13:33:30;;;;;;;3.58;0.60;;;;;;;15.31;41.19;100559.34;5012317;28;20057;-79
2021/05/06 13:36:04;;;;;;;3.40;0.70;;;;;;;15.51;38.16;100561.44;5022088;28;20715;-79
2021/05/06 13:38:49;;;;;;;3.17;0.95;;;;;;;15.64;38.23;100564.25;5003301;28;20132;-78
2021/05/06 13:41:14;;;;;;;4.47;0.85;;;;;;;15.91;35.75;100557.47;4994268;28;20054;-78
2021/05/06 13:43:40;;;;;;;3.15;0.77;;;;;;;15.63;37.76;100557.31;5018290;28;20633;-77
2021/05/06 13:46:10;;;;;;;4.28;0.90;;;;;;;16.44;38.31;100553.75;4986401;28;20696;-78
2021/05/06 13:48:37;;;;;;;3.13;1.08;;;;;;;14.84;36.93;100557.81;5011990;28;20522;-79
2021/05/06 13:51:04;;;;;;;3.10;1.00;;;;;;;14.14;41.30;100558.81;5005240;28;20037;-76
2021/05/06 13:53:30;;;;;;;7.03;1.02;;;;;;;13.54;44.38;100558.47;4986088;28;20037;-76
2021/05/06 13:55:55;;;;;;;2.92;0.85;;;;;;;12.93;45.33;100555.44;5010372;28;20112;-76
2021/05/06 13:58:21;;;;;;;2.22;0.75;;;;;;;12.14;46.12;100567.38;5022239;28;20049;-76
2021/05/06 14:00:46;;;;;;;4.70;1.02;;;;;;;11.14;50.89;100569.72;5027833;28;20416;-78
2021/05/06 14:03:12;;;;;;;3.22;1.17;;;;;;;10.55;59.90;100570.25;5013465;28;20160;-76
2021/05/06 14:05:37;;;;;;;6.03;1.10;;;;;;;10.02;64.46;100590.19;5025883;28;20046;-76
2021/05/06 14:08:03;;;;;;;5.07;1.05;;;;;;;9.51;64.70;100584.47;5020957;28;20050;-76
2021/05/06 14:10:28;;;;;;;3.30;1.23;;;;;;;9.11;64.94;100598.63;5030390;28;20041;-76
2021/05/06 14:12:54;;;;;;;4.20;0.80;;;;;;;8.81;64.39;100591.75;5012136;28;20045;-76
2021/05/06 14:15:19;;;;;;;3.08;0.93;;;;;;;8.53;66.60;100620.41;5003987;28;20037;-76
2021/05/06 14:17:45;;;;;;;4.13;0.80;;;;;;;8.47;66.80;100622.72;5023512;28;20157;-76
2021/05/06 14:20:11;;;;;;;2.35;0.73;;;;;;;8.53;67.56;100594.25;4993685;28;20050;-77
2021/05/06 14:22:37;;;;;;;2.25;0.82;;;;;;;9.47;65.16;100595.38;5026688;28;20107;-77
2021/05/06 14:25:03;;;;;;;1.88;0.80;;;;;;;10.99;59.45;100588.63;5008162;28;20053;-78
2021/05/06 14:27:28;;;;;;;2.95;0.90;;;;;;;12.02;52.49;100580.03;5021525;28;20420;-78
2021/05/06 14:29:54;;;;;;;2.55;0.85;;;;;;;13.30;48.34;100572.53;5004721;28;20042;-76
2021/05/06 14:32:19;;;;;;;2.83;0.47;;;;;;;14.17;41.73;100580.38;5019299;28;20137;-77
2021/05/06 14:34:44;;;;;;;1.65;0.60;;;;;;;14.72;42.51;100569.81;4976340;28;20590;-77